createdAt,value
2016-07-17T00:00:24.196Z,19.15
2016-07-17T00:01:24.169Z,19.27
2016-07-17T00:02:24.215Z,19.15
2016-07-17T00:03:24.224Z,19.2
2016-07-17T00:04:24.211Z,19.24
2016-07-17T00:05:24.229Z,19.17
2016-07-17T00:06:24.144Z,19.24
2016-07-17T00:07:24.383Z,19.17
2016-07-17T00:08:24.289Z,19.23
2016-07-17T00:09:24.296Z,19.09
2016-07-17T00:10:24.220Z,19.13
2016-07-17T00:11:24.178Z,19.12
2016-07-17T00:12:24.250Z,19.16
2016-07-17T00:13:24.167Z,19.15
2016-07-17T00:14:24.160Z,19.13
2016-07-17T00:15:24.237Z,19.09
2016-07-17T00:16:24.240Z,18.96
2016-07-17T00:17:24.309Z,19
2016-07-17T00:18:24.241Z,19.09
2016-07-17T00:19:24.308Z,19.06
2016-07-17T00:20:24.193Z,19.09
2016-07-17T00:21:24.199Z,19.13
2016-07-17T00:22:24.274Z,19.12
2016-07-17T00:23:24.267Z,19.12
2016-07-17T00:24:24.432Z,19.05
2016-07-17T00:25:24.264Z,19
2016-07-17T00:26:24.291Z,19.05
2016-07-17T00:27:24.276Z,19
2016-07-17T00:28:24.288Z,19.1
2016-07-17T00:29:24.333Z,19.02
2016-07-17T00:30:24.328Z,19.09
2016-07-17T00:31:24.370Z,19.19
2016-07-17T00:32:24.351Z,19.1
2016-07-17T00:33:24.216Z,19.15
2016-07-17T00:34:24.366Z,19.1
2016-07-17T00:35:24.282Z,19.15
2016-07-17T00:36:24.224Z,19.15
2016-07-17T00:37:24.345Z,19.05
2016-07-17T00:38:24.383Z,19.17
2016-07-17T00:39:24.310Z,19.1
2016-07-17T00:40:24.315Z,19.13
2016-07-17T00:41:24.376Z,19.15
2016-07-17T00:42:24.379Z,19.06
2016-07-17T00:43:24.319Z,19.13
2016-07-17T00:44:24.427Z,19.12
2016-07-17T00:45:24.354Z,19.17
2016-07-17T00:46:24.334Z,19.09
2016-07-17T00:47:24.401Z,19.06
2016-07-17T00:48:24.493Z,19.19
2016-07-17T00:49:24.403Z,19.13
2016-07-17T00:50:24.259Z,19.09
2016-07-17T00:51:24.373Z,19.17
2016-07-17T00:52:24.427Z,19.15
2016-07-17T00:53:24.344Z,19.07
2016-07-17T00:54:24.387Z,19.02
2016-07-17T00:55:24.294Z,19.07
2016-07-17T00:56:24.435Z,19
2016-07-17T00:57:24.379Z,19.05
2016-07-17T00:58:24.312Z,19.09
2016-07-17T00:59:24.439Z,18.97
2016-07-17T01:00:24.430Z,19
2016-07-17T01:01:24.302Z,18.99
2016-07-17T01:02:24.309Z,19.05
2016-07-17T01:03:24.372Z,18.94
2016-07-17T01:04:24.457Z,19.05
2016-07-17T01:05:24.376Z,19
2016-07-17T01:06:24.458Z,19.07
2016-07-17T01:07:24.378Z,19.05
2016-07-17T01:08:24.392Z,19
2016-07-17T01:09:24.472Z,18.99
2016-07-17T01:10:24.384Z,18.94
2016-07-17T01:11:24.404Z,18.99
2016-07-17T01:12:24.380Z,19
2016-07-17T01:13:24.609Z,19.02
2016-07-17T01:14:24.332Z,18.9
2016-07-17T01:15:24.471Z,18.96
2016-07-17T01:16:24.341Z,18.99
2016-07-17T01:17:24.418Z,18.97
2016-07-17T01:18:24.338Z,18.99
2016-07-17T01:19:24.344Z,18.94
2016-07-17T01:20:24.461Z,18.93
2016-07-17T01:21:24.425Z,18.96
2016-07-17T01:22:24.499Z,19
2016-07-17T01:23:24.355Z,19
2016-07-17T01:24:24.498Z,19.02
2016-07-17T01:25:24.441Z,18.94
2016-07-17T01:26:24.505Z,19.02
2016-07-17T01:27:24.481Z,18.99
2016-07-17T01:28:24.448Z,19
2016-07-17T01:29:24.441Z,19
2016-07-17T01:30:24.434Z,18.99
2016-07-17T01:31:24.381Z,19.06
2016-07-17T01:32:24.448Z,19.06
2016-07-17T01:33:24.385Z,19.1
2016-07-17T01:34:24.543Z,19.09
2016-07-17T01:35:24.463Z,19
2016-07-17T01:36:24.467Z,19.06
2016-07-17T01:37:24.562Z,18.96
2016-07-17T01:38:24.487Z,18.99
2016-07-17T01:39:24.393Z,19.06
2016-07-17T01:40:24.481Z,19.12
2016-07-17T01:41:24.479Z,19.13
2016-07-17T01:42:24.475Z,19.02
2016-07-17T01:43:24.557Z,19.06
2016-07-17T01:44:24.497Z,19.02
2016-07-17T01:45:24.656Z,19.06
2016-07-17T01:46:24.518Z,19.07
2016-07-17T01:47:24.492Z,19.09
2016-07-17T01:48:24.497Z,19.1
2016-07-17T01:49:24.514Z,19.09
2016-07-17T01:50:24.505Z,19.06
2016-07-17T01:51:24.590Z,19.1
2016-07-17T01:52:24.527Z,19.12
2016-07-17T01:53:24.519Z,19.07
2016-07-17T01:54:24.596Z,19.05
2016-07-17T01:55:24.520Z,19.02
2016-07-17T01:56:24.518Z,19
2016-07-17T01:57:24.605Z,18.99
2016-07-17T01:58:24.531Z,18.99
2016-07-17T01:59:24.463Z,19.06
2016-07-17T02:00:24.618Z,18.97
2016-07-17T02:01:24.615Z,19.05
2016-07-17T02:02:24.625Z,18.99
2016-07-17T02:03:24.641Z,18.97
2016-07-17T02:04:24.496Z,18.97
2016-07-17T02:05:25.170Z,18.99
2016-07-17T02:06:24.547Z,18.99
2016-07-17T02:07:24.584Z,19.13
2016-07-17T02:08:24.566Z,19.09
2016-07-17T02:09:24.566Z,18.97
2016-07-17T02:10:24.492Z,19
2016-07-17T02:11:24.563Z,19.06
2016-07-17T02:12:24.575Z,19
2016-07-17T02:13:24.575Z,19.07
2016-07-17T02:14:24.572Z,18.97
2016-07-17T02:15:24.572Z,18.99
2016-07-17T02:16:24.621Z,19.06
2016-07-17T02:17:24.526Z,19.06
2016-07-17T02:18:24.656Z,19
2016-07-17T02:19:24.589Z,19.06
2016-07-17T02:20:24.546Z,18.96
2016-07-17T02:21:24.609Z,19.05
2016-07-17T02:22:24.531Z,18.94
2016-07-17T02:23:24.607Z,19.02
2016-07-17T02:24:24.615Z,18.91
2016-07-17T02:25:24.629Z,19.05
2016-07-17T02:26:24.714Z,19.09
2016-07-17T02:27:24.643Z,19
2016-07-17T02:28:24.629Z,19
2016-07-17T02:29:24.693Z,18.87
2016-07-17T02:30:24.618Z,18.87
2016-07-17T02:31:24.550Z,18.81
2016-07-17T02:32:24.684Z,18.84
2016-07-17T02:33:24.703Z,18.87
2016-07-17T02:34:24.656Z,18.79
2016-07-17T02:35:24.641Z,18.78
2016-07-17T02:36:24.707Z,18.78
2016-07-17T02:37:24.637Z,18.87
2016-07-17T02:38:24.728Z,18.84
2016-07-17T02:39:24.758Z,18.9
2016-07-17T02:40:24.659Z,18.84
2016-07-17T02:41:24.651Z,18.99
2016-07-17T02:42:24.660Z,18.87
2016-07-17T02:43:24.582Z,18.94
2016-07-17T02:44:24.588Z,18.93
2016-07-17T02:45:24.592Z,18.87
2016-07-17T02:46:24.637Z,18.81
2016-07-17T02:47:24.681Z,18.93
2016-07-17T02:48:24.601Z,18.87
2016-07-17T02:49:24.600Z,18.9
2016-07-17T02:50:24.675Z,18.91
2016-07-17T02:51:24.679Z,18.84
2016-07-17T02:52:24.599Z,18.81
2016-07-17T02:53:24.756Z,18.96
2016-07-17T02:54:24.761Z,18.87
2016-07-17T02:55:24.641Z,18.82
2016-07-17T02:56:24.776Z,18.93
2016-07-17T02:57:24.690Z,18.93
2016-07-17T02:58:24.732Z,18.91
2016-07-17T02:59:24.699Z,18.94
2016-07-17T03:00:24.856Z,18.96
2016-07-17T03:01:24.636Z,18.89
2016-07-17T03:02:24.747Z,18.87
2016-07-17T03:03:24.801Z,18.93
2016-07-17T03:04:24.714Z,18.89
2016-07-17T03:05:24.713Z,18.94
2016-07-17T03:06:24.713Z,18.86
2016-07-17T03:07:24.736Z,18.91
2016-07-17T03:08:24.800Z,19.02
2016-07-17T03:09:24.662Z,18.89
2016-07-17T03:10:24.799Z,18.93
2016-07-17T03:11:24.666Z,19.02
2016-07-17T03:12:24.666Z,18.93
2016-07-17T03:13:24.824Z,18.82
2016-07-17T03:14:24.677Z,18.82
2016-07-17T03:15:24.824Z,18.97
2016-07-17T03:16:24.755Z,18.93
2016-07-17T03:17:24.843Z,18.94
2016-07-17T03:18:24.975Z,18.9
2016-07-17T03:19:24.694Z,18.96
2016-07-17T03:20:24.765Z,18.94
2016-07-17T03:21:24.762Z,18.87
2016-07-17T03:22:24.755Z,18.94
2016-07-17T03:23:24.768Z,18.89
2016-07-17T03:24:24.734Z,18.97
2016-07-17T03:25:24.701Z,19
2016-07-17T03:26:24.724Z,18.9
2016-07-17T03:27:24.876Z,18.96
2016-07-17T03:28:24.796Z,18.97
2016-07-17T03:29:24.788Z,18.91
2016-07-17T03:30:24.810Z,18.87
2016-07-17T03:31:24.715Z,18.86
2016-07-17T03:32:24.756Z,18.86
2016-07-17T03:33:24.794Z,18.87
2016-07-17T03:34:24.872Z,18.9
2016-07-17T03:35:24.884Z,18.9
2016-07-17T03:36:24.749Z,18.89
2016-07-17T03:37:24.812Z,18.87
2016-07-17T03:38:24.839Z,18.9
2016-07-17T03:39:24.888Z,18.93
2016-07-17T03:40:24.891Z,18.9
2016-07-17T03:41:24.823Z,18.89
2016-07-17T03:42:24.819Z,18.9
2016-07-17T03:43:24.771Z,19.02
2016-07-17T03:44:24.768Z,18.86
2016-07-17T03:45:24.850Z,18.87
2016-07-17T03:46:24.848Z,18.99
2016-07-17T03:47:24.846Z,18.93
2016-07-17T03:48:24.925Z,19
2016-07-17T03:49:24.902Z,18.9
2016-07-17T03:50:24.816Z,18.96
2016-07-17T03:51:24.869Z,18.91
2016-07-17T03:52:24.786Z,18.94
2016-07-17T03:53:24.795Z,18.94
2016-07-17T03:54:24.877Z,18.94
2016-07-17T03:55:24.961Z,19.02
2016-07-17T03:56:24.800Z,18.97
2016-07-17T03:57:24.860Z,18.94
2016-07-17T03:58:24.909Z,18.96
2016-07-17T03:59:24.881Z,18.93
2016-07-17T04:00:24.886Z,18.93
2016-07-17T04:01:24.873Z,18.94
2016-07-17T04:02:24.908Z,18.97
2016-07-17T04:03:24.966Z,18.97
2016-07-17T04:04:24.815Z,18.96
2016-07-17T04:05:24.902Z,18.9
2016-07-17T04:06:24.814Z,18.93
2016-07-17T04:07:24.995Z,18.97
2016-07-17T04:08:24.908Z,18.89
2016-07-17T04:09:24.836Z,19.05
2016-07-17T04:10:24.832Z,18.96
2016-07-17T04:11:24.829Z,19.07
2016-07-17T04:12:25.194Z,19
2016-07-17T04:13:24.907Z,18.97
2016-07-17T04:14:24.979Z,18.94
2016-07-17T04:15:24.849Z,18.91
2016-07-17T04:16:24.912Z,19
2016-07-17T04:17:24.841Z,18.91
2016-07-17T04:18:24.931Z,18.99
2016-07-17T04:19:25.001Z,18.93
2016-07-17T04:20:24.946Z,18.94
2016-07-17T04:21:24.968Z,19.02
2016-07-17T04:22:25.024Z,18.94
2016-07-17T04:23:24.937Z,18.91
2016-07-17T04:24:24.947Z,18.89
2016-07-17T04:25:25.015Z,19
2016-07-17T04:26:24.968Z,18.94
2016-07-17T04:27:24.965Z,18.9
2016-07-17T04:28:24.960Z,18.91
2016-07-17T04:29:25.025Z,18.91
2016-07-17T04:30:24.900Z,18.93
2016-07-17T04:31:25.028Z,18.99
2016-07-17T04:32:24.988Z,19
2016-07-17T04:34:24.975Z,18.99
2016-07-17T04:35:25.013Z,18.97
2016-07-17T04:36:24.990Z,19.02
2016-07-17T04:37:24.985Z,18.94
2016-07-17T04:38:24.935Z,19.12
2016-07-17T04:39:24.921Z,19
2016-07-17T04:40:25.071Z,19.06
2016-07-17T04:41:24.992Z,18.97
2016-07-17T04:42:25.092Z,19.12
2016-07-17T04:43:25.075Z,19
2016-07-17T04:44:25.017Z,19.02
2016-07-17T04:45:25.098Z,19.05
2016-07-17T04:46:24.943Z,19.1
2016-07-17T04:47:25.058Z,19.15
2016-07-17T04:48:25.101Z,19.07
2016-07-17T04:49:25.023Z,19.07
2016-07-17T04:50:25.123Z,19.1
2016-07-17T04:51:25.025Z,19.1
2016-07-17T04:52:25.027Z,19.15
2016-07-17T04:53:24.959Z,19.07
2016-07-17T04:54:25.068Z,19.09
2016-07-17T04:55:24.964Z,19.13
2016-07-17T04:56:25.114Z,19.09
2016-07-17T04:57:25.120Z,19.05
2016-07-17T04:58:25.132Z,19.15
2016-07-17T04:59:25.048Z,19.12
2016-07-17T05:00:25.050Z,19.07
2016-07-17T05:01:25.060Z,19.16
2016-07-17T05:02:25.062Z,19.17
2016-07-17T05:03:25.130Z,19.13
2016-07-17T05:04:25.053Z,19.09
2016-07-17T05:05:25.116Z,19.1
2016-07-17T05:06:25.137Z,19.2
2016-07-17T05:07:25.068Z,19.23
2016-07-17T05:08:25.100Z,19.2
2016-07-17T05:09:25.096Z,19.2
2016-07-17T05:10:25.012Z,19.19
2016-07-17T05:11:25.159Z,19.2
2016-07-17T05:12:25.128Z,19.2
2016-07-17T05:13:25.200Z,19.17
2016-07-17T05:14:25.038Z,19.23
2016-07-17T05:15:25.102Z,19.24
2016-07-17T05:16:25.096Z,19.27
2016-07-17T05:17:25.113Z,19.24
2016-07-17T05:18:25.018Z,19.23
2016-07-17T05:19:25.269Z,19.2
2016-07-17T05:20:25.055Z,19.16
2016-07-17T05:21:25.058Z,19.25
2016-07-17T05:22:25.179Z,19.28
2016-07-17T05:23:25.182Z,19.2
2016-07-17T05:24:25.121Z,19.2
2016-07-17T05:25:25.130Z,19.23
2016-07-17T05:26:25.061Z,19.24
2016-07-17T05:27:25.049Z,19.15
2016-07-17T05:28:25.136Z,19.24
2016-07-17T05:29:25.140Z,19.23
2016-07-17T05:30:25.188Z,19.24
2016-07-17T05:31:25.130Z,19.2
2016-07-17T05:32:25.253Z,19.24
2016-07-17T05:44:16.474Z,19.31
2016-07-17T05:44:23.372Z,19.49
2016-07-17T05:45:23.465Z,19.35
2016-07-17T05:46:23.465Z,19.42
2016-07-17T05:47:23.451Z,19.46
2016-07-17T05:48:23.305Z,19.45
2016-07-17T05:49:23.458Z,19.4
2016-07-17T05:50:23.388Z,19.55
2016-07-17T05:51:23.336Z,19.52
2016-07-17T05:52:23.463Z,19.55
2016-07-17T05:53:23.485Z,19.53
2016-07-17T05:54:23.330Z,19.6
2016-07-17T05:55:23.483Z,19.64
2016-07-17T05:56:23.423Z,19.64
2016-07-17T05:57:23.422Z,19.67
2016-07-17T05:58:23.327Z,19.65
2016-07-17T05:59:23.345Z,19.65
2016-07-17T06:00:23.498Z,19.64
2016-07-17T06:01:23.427Z,19.7
2016-07-17T06:02:23.408Z,19.7
2016-07-17T06:03:23.495Z,19.7
2016-07-17T06:04:23.418Z,19.75
2016-07-17T06:05:23.371Z,19.74
2016-07-17T06:06:23.442Z,19.75
2016-07-17T06:07:23.657Z,19.78
2016-07-17T06:08:23.435Z,19.83
2016-07-17T06:09:23.380Z,19.93
2016-07-17T06:10:23.572Z,19.92
2016-07-17T06:11:23.454Z,19.97
2016-07-17T06:12:23.493Z,20
2016-07-17T06:13:23.461Z,20.05
2016-07-17T06:14:23.537Z,19.92
2016-07-17T06:15:23.470Z,19.95
2016-07-17T06:16:23.535Z,19.93
2016-07-17T06:17:23.551Z,19.97
2016-07-17T06:18:23.538Z,20
2016-07-17T06:19:23.543Z,19.97
2016-07-17T06:20:23.407Z,20.01
2016-07-17T06:21:23.475Z,20.08
2016-07-17T06:22:23.477Z,19.95
2016-07-17T06:23:23.536Z,19.97
2016-07-17T06:24:23.499Z,20.05
2016-07-17T06:25:23.514Z,19.97
2016-07-17T06:26:23.561Z,19.93
2016-07-17T06:27:23.506Z,20.01
2016-07-17T06:28:23.569Z,20.02
2016-07-17T06:29:23.732Z,20.1
2016-07-17T06:30:23.498Z,20.05
2016-07-17T06:31:23.513Z,20.11
2016-07-17T06:32:23.508Z,20.11
2016-07-17T06:33:23.507Z,20.19
2016-07-17T06:34:23.597Z,20.27
2016-07-17T06:35:23.543Z,20.29
2016-07-17T06:36:23.591Z,20.19
2016-07-17T06:37:23.528Z,20.25
2016-07-17T06:38:23.540Z,20.22
2016-07-17T06:39:23.639Z,20.25
2016-07-17T06:40:23.547Z,20.3
2016-07-17T06:41:23.610Z,20.27
2016-07-17T06:42:23.544Z,20.15
2016-07-17T06:43:23.503Z,20.25
2016-07-17T06:44:23.537Z,20.2
2016-07-17T06:45:23.632Z,20.23
2016-07-17T06:46:23.557Z,20.16
2016-07-17T06:47:23.646Z,20.2
2016-07-17T06:48:23.554Z,20.27
2016-07-17T06:49:23.659Z,20.22
2016-07-17T06:50:23.648Z,20.12
2016-07-17T06:51:23.483Z,20.15
2016-07-17T06:52:23.561Z,20.08
2016-07-17T06:53:23.572Z,20.15
2016-07-17T06:54:23.496Z,20.15
2016-07-17T06:55:23.643Z,20.12
2016-07-17T06:56:23.574Z,20.16
2016-07-17T06:57:23.574Z,20.26
2016-07-17T06:58:23.579Z,20.3
2016-07-17T06:59:23.587Z,20.3
2016-07-17T07:00:23.605Z,20.32
2016-07-17T07:01:23.598Z,20.34
2016-07-17T07:02:23.680Z,20.38
2016-07-17T07:03:23.603Z,20.42
2016-07-17T07:04:23.528Z,20.38
2016-07-17T07:05:23.628Z,20.46
2016-07-17T07:06:23.613Z,20.42
2016-07-17T07:07:23.680Z,20.46
2016-07-17T07:08:23.620Z,20.64
2016-07-17T07:09:23.695Z,20.61
2016-07-17T07:10:23.868Z,20.6
2016-07-17T07:11:23.895Z,20.46
2016-07-17T07:12:23.623Z,20.34
2016-07-17T07:13:23.558Z,20.38
2016-07-17T07:14:23.564Z,20.4
2016-07-17T07:15:23.664Z,20.54
2016-07-17T07:16:23.648Z,20.53
2016-07-17T07:17:23.557Z,20.53
2016-07-17T07:18:23.668Z,20.6
2016-07-17T07:19:23.650Z,20.58
2016-07-17T07:20:23.663Z,20.61
2016-07-17T07:21:23.666Z,20.68
2016-07-17T07:22:23.696Z,20.78
2016-07-17T07:23:23.568Z,20.72
2016-07-17T07:24:23.580Z,20.66
2016-07-17T07:25:23.599Z,20.58
2016-07-17T07:26:23.910Z,20.66
2016-07-17T07:27:23.761Z,20.72
2016-07-17T07:28:23.595Z,20.83
2016-07-17T07:29:23.599Z,20.86
2016-07-17T07:30:23.740Z,20.91
2016-07-17T07:31:24.327Z,20.82
2016-07-17T07:32:23.600Z,20.94
2016-07-17T07:33:23.687Z,20.96
2016-07-17T07:34:23.840Z,20.97
2016-07-17T07:35:23.686Z,20.93
2016-07-17T07:36:23.699Z,20.82
2016-07-17T07:37:23.624Z,20.78
2016-07-17T07:38:23.897Z,20.88
2016-07-17T07:39:23.709Z,21.06
2016-07-17T07:40:23.696Z,21.04
2016-07-17T07:41:23.827Z,21.01
2016-07-17T07:42:23.911Z,21.03
2016-07-17T07:43:23.801Z,21.16
2016-07-17T07:44:23.795Z,20.98
2016-07-17T07:45:24.549Z,20.82
2016-07-17T07:46:23.810Z,20.91
2016-07-17T07:47:23.742Z,20.96
2016-07-17T07:48:23.752Z,20.94
2016-07-17T07:49:23.688Z,20.91
2016-07-17T07:50:23.787Z,21.01
2016-07-17T07:51:23.733Z,21.01
2016-07-17T07:52:24.022Z,20.98
2016-07-17T07:53:23.745Z,20.93
2016-07-17T07:54:23.695Z,20.93
2016-07-17T07:55:23.740Z,20.93
2016-07-17T07:56:23.791Z,21.03
2016-07-17T07:57:23.669Z,20.98
2016-07-17T07:58:23.774Z,20.91
2016-07-17T07:59:23.760Z,20.94
2016-07-17T08:00:23.847Z,21.22
2016-07-17T08:01:23.688Z,21.19
2016-07-17T08:02:23.829Z,21.13
2016-07-17T08:03:23.840Z,21.08
2016-07-17T08:04:23.861Z,20.98
2016-07-17T08:05:23.781Z,20.97
2016-07-17T08:06:23.796Z,21
2016-07-17T08:07:23.767Z,20.93
2016-07-17T08:08:23.732Z,20.9
2016-07-17T08:09:23.821Z,20.78
2016-07-17T08:10:23.881Z,20.63
2016-07-17T08:11:23.804Z,20.72
2016-07-17T08:12:23.872Z,20.58
2016-07-17T08:13:23.760Z,20.72
2016-07-17T08:14:23.754Z,20.76
2016-07-17T08:15:24.025Z,20.71
2016-07-17T08:16:23.734Z,20.64
2016-07-17T08:17:23.740Z,20.75
2016-07-17T08:18:23.876Z,20.75
2016-07-17T08:19:23.820Z,20.74
2016-07-17T08:20:23.871Z,20.66
2016-07-17T08:21:23.948Z,20.66
2016-07-17T08:22:23.929Z,20.61
2016-07-17T08:23:23.900Z,20.63
2016-07-17T08:24:23.909Z,20.72
2016-07-17T08:25:23.753Z,20.72
2016-07-17T08:26:23.922Z,20.76
2016-07-17T08:27:23.875Z,20.79
2016-07-17T08:28:23.937Z,20.66
2016-07-17T08:29:23.830Z,20.66
2016-07-17T08:30:23.920Z,20.83
2016-07-17T08:31:23.854Z,20.93
2016-07-17T08:32:23.780Z,20.96
2016-07-17T08:33:23.877Z,21.06
2016-07-17T08:34:24.001Z,21.04
2016-07-17T08:35:23.904Z,20.91
2016-07-17T08:36:23.791Z,20.98
2016-07-17T08:37:23.948Z,20.91
2016-07-17T08:38:23.940Z,21.21
2016-07-17T08:39:23.811Z,21.58
2016-07-17T08:40:23.881Z,21.48
2016-07-17T08:41:23.882Z,21.59
2016-07-17T08:42:23.950Z,21.74
2016-07-17T08:43:23.893Z,21.82
2016-07-17T08:44:23.888Z,21.67
2016-07-17T08:45:23.900Z,21.46
2016-07-17T08:46:23.957Z,21.46
2016-07-17T08:47:23.832Z,21.41
2016-07-17T08:48:23.896Z,21.53
2016-07-17T08:49:23.836Z,21.49
2016-07-17T08:50:23.966Z,21.38
2016-07-17T08:51:24.008Z,21.41
2016-07-17T08:52:23.861Z,21.46
2016-07-17T08:53:23.948Z,21.49
2016-07-17T08:54:23.856Z,21.51
2016-07-17T08:55:24.168Z,21.4
2016-07-17T08:56:23.927Z,21.56
2016-07-17T08:57:23.961Z,21.76
2016-07-17T08:58:23.935Z,21.58
2016-07-17T08:59:23.937Z,21.58
2016-07-17T09:00:58.867Z,21.67
2016-07-17T09:01:23.867Z,21.71
2016-07-17T09:02:24.472Z,21.7
2016-07-17T09:03:23.873Z,21.9
2016-07-17T09:04:23.882Z,21.82
2016-07-17T09:05:23.960Z,21.92
2016-07-17T09:17:15.632Z,21.8
2016-07-17T09:17:22.569Z,21.58
2016-07-17T09:18:22.647Z,21.52
2016-07-17T09:19:22.575Z,21.56
2016-07-17T09:20:22.506Z,21.59
2016-07-17T09:21:22.643Z,21.62
2016-07-17T09:22:22.664Z,21.55
2016-07-17T09:23:22.634Z,21.67
2016-07-17T09:24:22.664Z,21.67
2016-07-17T09:25:22.667Z,21.45
2016-07-17T09:26:22.610Z,21.51
2016-07-17T09:27:22.515Z,21.58
2016-07-17T09:28:22.514Z,21.73
2016-07-17T09:29:22.621Z,21.82
2016-07-17T09:30:22.626Z,21.66
2016-07-17T09:31:22.633Z,21.73
2016-07-17T09:32:22.540Z,21.66
2016-07-17T09:33:22.558Z,21.83
2016-07-17T09:34:22.640Z,21.86
2016-07-17T09:35:22.539Z,21.77
2016-07-17T09:36:22.547Z,21.77
2016-07-17T09:37:22.541Z,22
2016-07-17T09:38:22.694Z,22.14
2016-07-17T09:39:22.646Z,21.92
2016-07-17T09:40:22.713Z,21.85
2016-07-17T09:41:22.643Z,21.92
2016-07-17T09:42:22.716Z,21.96
2016-07-17T09:43:22.634Z,22.15
2016-07-17T09:44:22.728Z,22.09
2016-07-17T09:45:22.686Z,22.2
2016-07-17T09:46:22.671Z,22.23
2016-07-17T09:47:22.571Z,22.48
2016-07-17T09:48:22.583Z,22.61
2016-07-17T09:49:22.651Z,22.7
2016-07-17T09:50:22.743Z,22.78
2016-07-17T09:51:22.632Z,23
2016-07-17T09:52:22.755Z,23.24
2016-07-17T09:53:22.668Z,23.37
2016-07-17T09:54:22.596Z,23.21
2016-07-17T09:55:22.949Z,23.14
2016-07-17T09:56:22.744Z,23.16
2016-07-17T09:57:22.707Z,23.37
2016-07-17T09:58:22.623Z,23.21
2016-07-17T09:59:22.757Z,22.91
2016-07-17T10:00:22.693Z,23
2016-07-17T10:01:22.708Z,23.1
2016-07-17T10:02:22.705Z,22.97
2016-07-17T10:03:22.655Z,23.38
2016-07-17T10:04:22.691Z,23.24
2016-07-17T10:05:22.709Z,23.16
2016-07-17T10:06:22.777Z,22.96
2016-07-17T10:07:22.724Z,23.04
2016-07-17T10:08:22.639Z,23.19
2016-07-17T10:09:22.704Z,23
2016-07-17T10:10:22.780Z,22.86
2016-07-17T10:11:22.719Z,23.06
2016-07-17T10:12:22.662Z,23.04
2016-07-17T10:13:23.063Z,23.09
2016-07-17T10:14:22.752Z,23.04
2016-07-17T10:15:22.846Z,23.04
2016-07-17T10:16:22.735Z,23
2016-07-17T10:17:22.770Z,22.94
2016-07-17T10:18:22.757Z,23.01
2016-07-17T10:19:22.734Z,23.15
2016-07-17T10:20:22.817Z,23.25
2016-07-17T10:21:22.781Z,23.71
2016-07-17T10:22:22.763Z,23.9
2016-07-17T10:23:22.868Z,24.15
2016-07-17T10:24:22.781Z,24.44
2016-07-17T10:25:22.684Z,24.32
2016-07-17T10:26:22.760Z,23.81
2016-07-17T10:27:22.825Z,23.35
2016-07-17T10:28:22.848Z,23.28
2016-07-17T10:29:22.699Z,23.48
2016-07-17T10:30:22.716Z,23.75
2016-07-17T10:31:22.838Z,24.07
2016-07-17T10:32:22.875Z,23.84
2016-07-17T10:33:22.743Z,23.64
2016-07-17T10:34:22.996Z,23.44
2016-07-17T10:35:22.808Z,23.24
2016-07-17T10:36:22.824Z,23.1
2016-07-17T10:37:22.867Z,23.04
2016-07-17T10:38:22.856Z,22.91
2016-07-17T10:39:22.843Z,23.21
2016-07-17T10:40:22.894Z,23.4
2016-07-17T10:41:22.815Z,23.4
2016-07-17T10:42:22.816Z,23.64
2016-07-17T10:43:22.932Z,23.85
2016-07-17T10:44:22.736Z,24.04
2016-07-17T10:45:22.870Z,24.15
2016-07-17T10:46:22.757Z,23.99
2016-07-17T10:47:22.999Z,23.99
2016-07-17T10:48:22.757Z,24.12
2016-07-17T10:49:22.926Z,24.11
2016-07-17T10:50:22.832Z,24.42
2016-07-17T10:51:22.788Z,23.99
2016-07-17T10:52:22.766Z,23.67
2016-07-17T10:53:22.867Z,23.56
2016-07-17T10:54:22.858Z,23.55
2016-07-17T10:55:22.938Z,23.37
2016-07-17T10:56:22.972Z,23.22
2016-07-17T10:57:22.889Z,23.24
2016-07-17T10:58:22.907Z,23.35
2016-07-17T10:59:22.861Z,23.48
2016-07-17T11:00:23.142Z,23.53
2016-07-17T11:01:22.928Z,23.41
2016-07-17T11:02:22.903Z,23.26
2016-07-17T11:03:22.911Z,23.16
2016-07-17T11:04:22.984Z,23.12
2016-07-17T11:05:22.898Z,23.37
2016-07-17T11:06:22.961Z,23.52
2016-07-17T11:07:22.953Z,23.28
2016-07-17T11:08:22.989Z,23.04
2016-07-17T11:09:22.945Z,23.28
2016-07-17T11:10:22.843Z,23.21
2016-07-17T11:11:22.847Z,23.07
2016-07-17T11:12:22.846Z,23.06
2016-07-17T11:13:22.841Z,22.84
2016-07-17T11:14:22.846Z,23.01
2016-07-17T11:15:23.042Z,23.26
2016-07-17T11:16:22.994Z,23.25
2016-07-17T11:17:23.063Z,23.44
2016-07-17T11:18:22.869Z,23.42
2016-07-17T11:19:22.933Z,23.4
2016-07-17T11:20:22.993Z,23.41
2016-07-17T11:21:23.030Z,23.34
2016-07-17T11:22:23.019Z,23.16
2016-07-17T11:23:22.948Z,23.21
2016-07-17T11:24:22.945Z,23.24
2016-07-17T11:25:23.001Z,23.32
2016-07-17T11:26:23.027Z,23.38
2016-07-17T11:27:23.070Z,23.45
2016-07-17T11:28:22.966Z,23.74
2016-07-17T11:29:22.905Z,24.18
2016-07-17T11:30:22.895Z,24.46
2016-07-17T11:31:22.920Z,24.71
2016-07-17T11:32:22.977Z,24.77
2016-07-17T11:33:23.061Z,24.36
2016-07-17T11:34:23.206Z,24.29
2016-07-17T11:35:23.064Z,24.33
2016-07-17T11:36:23.082Z,24.56
2016-07-17T11:37:22.927Z,24.42
2016-07-17T11:38:22.907Z,24.58
2016-07-17T11:39:22.988Z,24.82
2016-07-17T11:40:23.010Z,25.08
2016-07-17T11:41:23.095Z,24.87
2016-07-17T11:42:23.019Z,24.52
2016-07-17T11:43:22.929Z,24.3
2016-07-17T11:44:22.945Z,24.44
2016-07-17T11:45:23.038Z,23.75
2016-07-17T11:46:23.003Z,23.82
2016-07-17T11:47:23.081Z,23.99
2016-07-17T11:48:23.013Z,24.14
2016-07-17T11:49:22.946Z,24.34
2016-07-17T11:50:22.945Z,24.86
2016-07-17T11:51:23.028Z,25.17
2016-07-17T11:52:22.946Z,25.05
2016-07-17T11:53:23.050Z,24.74
2016-07-17T11:54:23.125Z,24.66
2016-07-17T11:55:22.958Z,24.58
2016-07-17T11:56:23.027Z,24.64
2016-07-17T11:57:23.042Z,24.51
2016-07-17T11:58:23.111Z,24.37
2016-07-17T11:59:23.041Z,24.48
2016-07-17T12:00:23.089Z,24.67
2016-07-17T12:01:23.151Z,25.05
2016-07-17T12:02:23.049Z,25.67
2016-07-17T12:03:23.056Z,26.37
2016-07-17T12:04:22.991Z,26.59
2016-07-17T12:05:23.058Z,26.61
2016-07-17T12:06:23.083Z,26.74
2016-07-17T12:07:23.054Z,26.45
2016-07-17T12:08:23.177Z,25.85
2016-07-17T12:09:23.070Z,25.62
2016-07-17T12:10:23.156Z,25.74
2016-07-17T12:11:23.060Z,25.82
2016-07-17T12:12:23.101Z,25.88
2016-07-17T12:13:22.984Z,26.2
2016-07-17T12:14:23.205Z,25.54
2016-07-17T12:15:23.018Z,25.88
2016-07-17T12:16:23.081Z,25.88
2016-07-17T12:17:23.018Z,25.88
2016-07-17T12:18:23.033Z,25.99
2016-07-17T12:19:23.095Z,26.16
2016-07-17T12:20:23.116Z,26.19
2016-07-17T12:21:23.123Z,26.34
2016-07-17T12:22:23.170Z,26.32
2016-07-17T12:23:23.194Z,26.31
2016-07-17T12:24:23.137Z,26.17
2016-07-17T12:25:23.126Z,25.82
2016-07-17T12:26:23.199Z,25.2
2016-07-17T12:27:23.119Z,25.02
2016-07-17T12:28:23.129Z,25
2016-07-17T12:29:23.216Z,25.19
2016-07-17T12:30:23.042Z,25.32
2016-07-17T12:31:23.189Z,25.02
2016-07-17T12:32:23.207Z,24.48
2016-07-17T12:33:23.057Z,24.51
2016-07-17T12:34:23.149Z,24.39
2016-07-17T12:35:23.128Z,24.48
2016-07-17T12:36:23.153Z,24.66
2016-07-17T12:37:23.159Z,25.12
2016-07-17T12:38:23.069Z,25.51
2016-07-17T12:39:23.067Z,25.66
2016-07-17T12:40:23.216Z,25.64
2016-07-17T12:41:23.090Z,25.52
2016-07-17T12:42:23.298Z,25.49
2016-07-17T12:43:23.091Z,25.76
2016-07-17T12:44:23.271Z,25.88
2016-07-17T12:45:23.167Z,25.86
2016-07-17T12:46:23.164Z,25.78
2016-07-17T12:47:23.179Z,25.64
2016-07-17T12:48:23.189Z,25.67
2016-07-17T12:49:23.124Z,25.85
2016-07-17T12:50:23.107Z,25.89
2016-07-17T12:51:23.123Z,26.31
2016-07-17T12:52:23.282Z,26.64
2016-07-17T12:53:23.198Z,26.38
2016-07-17T12:54:23.194Z,26.57
2016-07-17T12:55:23.387Z,26.64
2016-07-17T12:56:23.136Z,26.97
2016-07-17T12:57:23.238Z,27.05
2016-07-17T12:58:23.200Z,27.24
2016-07-17T12:59:23.243Z,26.87
2016-07-17T13:00:23.277Z,26.9
2016-07-17T13:01:23.217Z,26.78
2016-07-17T13:02:23.220Z,26.87
2016-07-17T13:03:23.152Z,26.91
2016-07-17T13:04:23.209Z,27.27
2016-07-17T13:05:23.145Z,27.76
2016-07-17T13:06:23.297Z,28.16
2016-07-17T13:07:23.165Z,27.93
2016-07-17T13:08:23.309Z,27.51
2016-07-17T13:09:23.311Z,27.46
2016-07-17T13:10:23.170Z,27.21
2016-07-17T13:11:23.324Z,26.96
2016-07-17T13:12:23.369Z,26.74
2016-07-17T13:13:23.267Z,26.44
2016-07-17T13:14:23.374Z,26.41
2016-07-17T13:15:23.267Z,26.26
2016-07-17T13:16:23.266Z,26.2
2016-07-17T13:17:23.262Z,26.24
2016-07-17T13:18:23.227Z,26.45
2016-07-17T13:19:23.340Z,26.84